sensor_id;sensor_type;location;lat;lon;timestamp;pressure;altitude;pressure_sealevel;temperature;humidity
61880;BME280;47817;52.798;27.544;2023-01-05T00:00:14;1012.6;;;2.9;92.9
61880;BME280;47817;52.798;27.544;2023-01-05T00:04:40;1012.6;;;2.9;92.9
61880;BME280;47817;52.798;27.544;2023-01-05T00:09:34;1012.4;;;2.9;93.1
61880;BME280;47817;52.798;27.544;2023-01-05T00:14:52;1012.3;;;2.9;93.4
61880;BME280;47817;52.798;27.544;2023-01-05T00:20:15;1012;;;2.9;94.4
61880;BME280;47817;52.798;27.544;2023-01-05T00:25:15;1011.9;;;2.8;94.9
61880;BME280;47817;52.798;27.544;2023-01-05T00:29:36;1011.9;;;2.8;94.9
61880;BME280;47817;52.798;27.544;2023-01-05T00:34:54;1011.8;;;2.8;95.1
61880;BME280;47817;52.798;27.544;2023-01-05T00:39:34;1011.6;;;2.8;95.1
61880;BME280;47817;52.798;27.544;2023-01-05T00:45:00;1011.5;;;2.7;95.5
61880;BME280;47817;52.798;27.544;2023-01-05T00:50:15;1011.2;;;2.7;96.4
61880;BME280;47817;52.798;27.544;2023-01-05T00:54:34;1011.2;;;2.7;96.4
61880;BME280;47817;52.798;27.544;2023-01-05T00:59:40;1011;;;2.7;97
61880;BME280;47817;52.798;27.544;2023-01-05T01:04:34;1010.9;;;2.7;97.3
61880;BME280;47817;52.798;27.544;2023-01-05T01:10:14;1010.6;;;2.8;97.6
61880;BME280;47817;52.798;27.544;2023-01-05T01:15:14;1010.5;;;2.7;97.5
61880;BME280;47817;52.798;27.544;2023-01-05T01:19:42;1010.5;;;2.7;97.5
61880;BME280;47817;52.798;27.544;2023-01-05T01:24:42;1010.3;;;2.7;97.9
61880;BME280;47817;52.798;27.544;2023-01-05T01:29:42;1010.1;;;2.7;98.5
61880;BME280;47817;52.798;27.544;2023-01-05T01:35:04;1009.9;;;2.7;98.9
61880;BME280;47817;52.798;27.544;2023-01-05T01:40:14;1009.6;;;2.8;99.3
61880;BME280;47817;52.798;27.544;2023-01-05T01:44:51;1009.6;;;2.8;99.3
61880;BME280;47817;52.798;27.544;2023-01-05T01:49:44;1009.5;;;2.7;99.3
61880;BME280;47817;52.798;27.544;2023-01-05T01:54:34;1009.5;;;2.8;99.5
61880;BME280;47817;52.798;27.544;2023-01-05T02:00:14;1009.2;;;2.8;99.9
61880;BME280;47817;52.798;27.544;2023-01-05T02:05:14;1009;;;2.8;100
61880;BME280;47817;52.798;27.544;2023-01-05T02:10:04;1009;;;2.8;100
61880;BME280;47817;52.798;27.544;2023-01-05T02:14:56;1009.1;;;2.8;100
61880;BME280;47817;52.798;27.544;2023-01-05T02:19:49;1009;;;2.8;100
61880;BME280;47817;52.798;27.544;2023-01-05T02:25:24;1008.7;;;2.9;100
61880;BME280;47817;52.798;27.544;2023-01-05T02:30:20;1008.6;;;2.9;100
61880;BME280;47817;52.798;27.544;2023-01-05T02:34:35;1008.6;;;2.9;100
61880;BME280;47817;52.798;27.544;2023-01-05T02:39:35;1008.4;;;3;100
61880;BME280;47817;52.798;27.544;2023-01-05T02:44:54;1008.2;;;3;100
61880;BME280;47817;52.798;27.544;2023-01-05T02:50:16;1007.9;;;3.1;100
61880;BME280;47817;52.798;27.544;2023-01-05T02:55:18;1007.8;;;3.1;100
61880;BME280;47817;52.798;27.544;2023-01-05T02:59:56;1007.8;;;3.1;100
61880;BME280;47817;52.798;27.544;2023-01-05T03:05:04;1007.8;;;3.2;100
61880;BME280;47817;52.798;27.544;2023-01-05T03:09:34;1007.7;;;3.2;100
61880;BME280;47817;52.798;27.544;2023-01-05T03:15:18;1007.2;;;3.4;100
61880;BME280;47817;52.798;27.544;2023-01-05T03:20:14;1007.1;;;3.4;100
61880;BME280;47817;52.798;27.544;2023-01-05T03:24:34;1007.1;;;3.4;100
61880;BME280;47817;52.798;27.544;2023-01-05T03:29:52;1007.1;;;3.4;100
61880;BME280;47817;52.798;27.544;2023-01-05T03:34:52;1007;;;3.5;100
61880;BME280;47817;52.798;27.544;2023-01-05T03:40:15;1006.8;;;3.6;100
61880;BME280;47817;52.798;27.544;2023-01-05T03:45:16;1006.8;;;3.6;100
61880;BME280;47817;52.798;27.544;2023-01-05T03:49:46;1006.8;;;3.6;100
61880;BME280;47817;52.798;27.544;2023-01-05T03:55:06;1006.7;;;3.6;100
61880;BME280;47817;52.798;27.544;2023-01-05T03:59:34;1006.5;;;3.6;100
61880;BME280;47817;52.798;27.544;2023-01-05T04:05:16;1006.3;;;3.7;100
61880;BME280;47817;52.798;27.544;2023-01-05T04:10:16;1006.3;;;3.8;100
61880;BME280;47817;52.798;27.544;2023-01-05T04:14:44;1006.3;;;3.8;100
61880;BME280;47817;52.798;27.544;2023-01-05T04:19:34;1006.2;;;3.8;100
61880;BME280;47817;52.798;27.544;2023-01-05T04:24:44;1006.1;;;3.9;100
61880;BME280;47817;52.798;27.544;2023-01-05T04:29:56;1006;;;4;100
61880;BME280;47817;52.798;27.544;2023-01-05T04:35:16;1005.8;;;4.1;100
61880;BME280;47817;52.798;27.544;2023-01-05T04:40:04;1005.8;;;4.1;100
61880;BME280;47817;52.798;27.544;2023-01-05T04:45:06;1005.8;;;4.2;100
61880;BME280;47817;52.798;27.544;2023-01-05T04:49:44;1005.7;;;4.2;100
61880;BME280;47817;52.798;27.544;2023-01-05T04:55:18;1005.4;;;4.4;100
61880;BME280;47817;52.798;27.544;2023-01-05T05:00:16;1005.4;;;4.5;100
61880;BME280;47817;52.798;27.544;2023-01-05T05:04:46;1005.4;;;4.5;100
61880;BME280;47817;52.798;27.544;2023-01-05T05:09:56;1005.3;;;4.6;100
61880;BME280;47817;52.798;27.544;2023-01-05T05:14:54;1005.2;;;4.7;100
61880;BME280;47817;52.798;27.544;2023-01-05T05:20:18;1005.1;;;4.8;100
61880;BME280;47817;52.798;27.544;2023-01-05T05:25:18;1005;;;4.9;100
61880;BME280;47817;52.798;27.544;2023-01-05T05:30:08;1005;;;4.9;100
61880;BME280;47817;52.798;27.544;2023-01-05T05:35:08;1005;;;5;100
61880;BME280;47817;52.798;27.544;2023-01-05T05:39:34;1004.9;;;5;100
61880;BME280;47817;52.798;27.544;2023-01-05T05:45:18;1004.8;;;5.1;100
61880;BME280;47817;52.798;27.544;2023-01-05T05:49:58;1004.8;;;5.1;100
61880;BME280;47817;52.798;27.544;2023-01-05T05:54:46;1004.7;;;5.2;100
61880;BME280;47817;52.798;27.544;2023-01-05T05:59:34;1004.7;;;5.3;100
61880;BME280;47817;52.798;27.544;2023-01-05T06:05:16;1004.6;;;5.4;100
61880;BME280;47817;52.798;27.544;2023-01-05T06:10:16;1004.5;;;5.4;100
61880;BME280;47817;52.798;27.544;2023-01-05T06:14:34;1004.5;;;5.4;100
61880;BME280;47817;52.798;27.544;2023-01-05T06:20:10;1004.4;;;5.5;100
61880;BME280;47817;52.798;27.544;2023-01-05T06:24:58;1004.4;;;5.5;100
61880;BME280;47817;52.798;27.544;2023-01-05T06:29:34;1004.3;;;5.5;100
61880;BME280;47817;52.798;27.544;2023-01-05T06:35:08;1004.4;;;5.6;100
61880;BME280;47817;52.798;27.544;2023-01-05T06:40:10;1004.4;;;5.7;100
61880;BME280;47817;52.798;27.544;2023-01-05T06:45:20;1004.4;;;5.9;100
61880;BME280;47817;52.798;27.544;2023-01-05T06:50:10;1004.4;;;5.9;100
61880;BME280;47817;52.798;27.544;2023-01-05T06:55:18;1004.3;;;6;100
61880;BME280;47817;52.798;27.544;2023-01-05T07:00:10;1004.3;;;6;100
61880;BME280;47817;52.798;27.544;2023-01-05T07:04:34;1004.3;;;6.1;100
61880;BME280;47817;52.798;27.544;2023-01-05T07:10:06;1004.2;;;6.2;100
61880;BME280;47817;52.798;27.544;2023-01-05T07:15:08;1004.2;;;6.2;100
61880;BME280;47817;52.798;27.544;2023-01-05T07:19:34;1004.2;;;6.3;100
61880;BME280;47817;52.798;27.544;2023-01-05T07:25:08;1004.2;;;6.3;100
61880;BME280;47817;52.798;27.544;2023-01-05T07:30:08;1004.1;;;6.3;100
61880;BME280;47817;52.798;27.544;2023-01-05T07:34:44;1004.1;;;6.4;100
61880;BME280;47817;52.798;27.544;2023-01-05T07:39:54;1004.1;;;6.4;100
61880;BME280;47817;52.798;27.544;2023-01-05T07:45:16;1004.1;;;6.5;100
61880;BME280;47817;52.798;27.544;2023-01-05T07:50:16;1004.1;;;6.6;100
61880;BME280;47817;52.798;27.544;2023-01-05T07:54:34;1004.1;;;6.6;100
61880;BME280;47817;52.798;27.544;2023-01-05T08:00:06;1004.1;;;6.7;100
61880;BME280;47817;52.798;27.544;2023-01-05T08:04:58;1004;;;6.7;100
61880;BME280;47817;52.798;27.544;2023-01-05T08:09:58;1004;;;6.8;100
61880;BME280;47817;52.798;27.544;2023-01-05T08:15:08;1004;;;6.8;100
61880;BME280;47817;52.798;27.544;2023-01-05T08:20:06;1004.1;;;6.9;100
61880;BME280;47817;52.798;27.544;2023-01-05T08:24:34;1004;;;6.9;100
61880;BME280;47817;52.798;27.544;2023-01-05T08:29:54;1004;;;7;100
61880;BME280;47817;52.798;27.544;2023-01-05T08:35:18;1003.9;;;7.2;100
61880;BME280;47817;52.798;27.544;2023-01-05T08:40:16;1004;;;7.3;100
61880;BME280;47817;52.798;27.544;2023-01-05T08:44:44;1004;;;7.3;100
61880;BME280;47817;52.798;27.544;2023-01-05T08:50:07;1004;;;7.4;100
61880;BME280;47817;52.798;27.544;2023-01-05T08:54:56;1003.9;;;7.5;100
61880;BME280;47817;52.798;27.544;2023-01-05T08:59:34;1003.9;;;7.6;100
61880;BME280;47817;52.798;27.544;2023-01-05T09:05:08;1003.9;;;7.7;100
61880;BME280;47817;52.798;27.544;2023-01-05T09:10:07;1003.8;;;7.7;100
61880;BME280;47817;52.798;27.544;2023-01-05T09:14:44;1003.8;;;7.7;100
61880;BME280;47817;52.798;27.544;2023-01-05T09:19:54;1003.8;;;7.7;100
61880;BME280;47817;52.798;27.544;2023-01-05T09:25:16;1003.8;;;7.9;100
61880;BME280;47817;52.798;27.544;2023-01-05T09:30:18;1003.7;;;7.9;100
61880;BME280;47817;52.798;27.544;2023-01-05T09:34:44;1003.7;;;7.9;100
61880;BME280;47817;52.798;27.544;2023-01-05T09:39:36;1003.7;;;7.9;100
61880;BME280;47817;52.798;27.544;2023-01-05T09:44:55;1003.6;;;8;100
61880;BME280;47817;52.798;27.544;2023-01-05T09:49:44;1003.6;;;8;100
61880;BME280;47817;52.798;27.544;2023-01-05T09:55:09;1003.5;;;8.2;100
61880;BME280;47817;52.798;27.544;2023-01-05T10:00:18;1003.5;;;8.6;100
61880;BME280;47817;52.798;27.544;2023-01-05T10:04:34;1003.5;;;8.6;100
61880;BME280;47817;52.798;27.544;2023-01-05T10:09:57;1003.5;;;8.5;100
61880;BME280;47817;52.798;27.544;2023-01-05T10:15:09;1003.5;;;8.4;100
61880;BME280;47817;52.798;27.544;2023-01-05T10:20:13;1003.5;;;8.2;100
61880;BME280;47817;52.798;27.544;2023-01-05T10:24:46;1003.4;;;8.1;100
61880;BME280;47817;52.798;27.544;2023-01-05T10:29:59;1003.4;;;8.1;100
61880;BME280;47817;52.798;27.544;2023-01-05T10:35:23;1003.3;;;8.2;100
61880;BME280;47817;52.798;27.544;2023-01-05T10:39:50;1003.4;;;8.3;100
61880;BME280;47817;52.798;27.544;2023-01-05T10:45:22;1003.3;;;8.3;100
61880;BME280;47817;52.798;27.544;2023-01-05T10:50:32;1003.3;;;8.3;100
61880;BME280;47817;52.798;27.544;2023-01-05T10:54:35;1003.3;;;8.3;100
61880;BME280;47817;52.798;27.544;2023-01-05T10:59:57;1003.3;;;8.3;100
61880;BME280;47817;52.798;27.544;2023-01-05T11:05:01;1003.2;;;8.4;100
61880;BME280;47817;52.798;27.544;2023-01-05T11:10:18;1003.2;;;8.4;100
61880;BME280;47817;52.798;27.544;2023-01-05T11:14:47;1003.2;;;8.4;100
61880;BME280;47817;52.798;27.544;2023-01-05T11:19:58;1003.2;;;8.5;100
61880;BME280;47817;52.798;27.544;2023-01-05T11:24:34;1003.2;;;8.5;100
61880;BME280;47817;52.798;27.544;2023-01-05T11:29:34;1003.1;;;8.5;100
61880;BME280;47817;52.798;27.544;2023-01-05T11:35:24;1003.1;;;8.4;100
61880;BME280;47817;52.798;27.544;2023-01-05T11:40:20;1003.1;;;8.3;100
61880;BME280;47817;52.798;27.544;2023-01-05T11:44:47;1003.1;;;8.3;100
61880;BME280;47817;52.798;27.544;2023-01-05T11:49:57;1003.2;;;8.2;100
61880;BME280;47817;52.798;27.544;2023-01-05T11:55:44;1003.2;;;7.9;100
61880;BME280;47817;52.798;27.544;2023-01-05T12:00:20;1003.2;;;7.8;100
61880;BME280;47817;52.798;27.544;2023-01-05T12:04:52;1003.2;;;7.8;100
61880;BME280;47817;52.798;27.544;2023-01-05T12:09:57;1003.2;;;7.8;100
61880;BME280;47817;52.798;27.544;2023-01-05T12:15:10;1003.2;;;7.8;100
61880;BME280;47817;52.798;27.544;2023-01-05T12:19:39;1003.3;;;7.8;100
61880;BME280;47817;52.798;27.544;2023-01-05T12:25:20;1003.2;;;7.8;100
61880;BME280;47817;52.798;27.544;2023-01-05T12:30:24;1003.2;;;7.8;100
61880;BME280;47817;52.798;27.544;2023-01-05T12:35:02;1003.2;;;7.8;100
61880;BME280;47817;52.798;27.544;2023-01-05T12:40:03;1003.2;;;7.7;100
61880;BME280;47817;52.798;27.544;2023-01-05T12:45:24;1003.1;;;7.7;100
61880;BME280;47817;52.798;27.544;2023-01-05T12:50:22;1003.1;;;7.7;100
61880;BME280;47817;52.798;27.544;2023-01-05T12:54:48;1003.2;;;7.7;100
61880;BME280;47817;52.798;27.544;2023-01-05T12:59:59;1003.2;;;7.7;100
61880;BME280;47817;52.798;27.544;2023-01-05T13:05:13;1003.2;;;7.7;100
61880;BME280;47817;52.798;27.544;2023-01-05T13:09:44;1003.2;;;7.8;100
61880;BME280;47817;52.798;27.544;2023-01-05T13:15:19;1003.3;;;7.7;100
61880;BME280;47817;52.798;27.544;2023-01-05T13:20:27;1003.4;;;7.7;100
61880;BME280;47817;52.798;27.544;2023-01-05T13:24:35;1003.4;;;7.7;100
61880;BME280;47817;52.798;27.544;2023-01-05T13:29:56;1003.5;;;7.7;100
61880;BME280;47817;52.798;27.544;2023-01-05T13:34:52;1003.5;;;7.7;100
61880;BME280;47817;52.798;27.544;2023-01-05T13:40:25;1003.5;;;7.7;100
61880;BME280;47817;52.798;27.544;2023-01-05T13:44:41;1003.5;;;7.7;100
61880;BME280;47817;52.798;27.544;2023-01-05T13:50:06;1003.6;;;7.7;100
61880;BME280;47817;52.798;27.544;2023-01-05T13:55:00;1003.6;;;7.7;100
61880;BME280;47817;52.798;27.544;2023-01-05T13:59:34;1003.7;;;7.6;100
61880;BME280;47817;52.798;27.544;2023-01-05T14:05:22;1003.7;;;7.6;100
61880;BME280;47817;52.798;27.544;2023-01-05T14:10:15;1003.7;;;7.6;100
61880;BME280;47817;52.798;27.544;2023-01-05T14:15:00;1003.7;;;7.6;100
61880;BME280;47817;52.798;27.544;2023-01-05T14:19:50;1003.8;;;7.6;100
61880;BME280;47817;52.798;27.544;2023-01-05T14:24:56;1003.8;;;7.6;100
61880;BME280;47817;52.798;27.544;2023-01-05T14:30:19;1003.9;;;7.6;100
61880;BME280;47817;52.798;27.544;2023-01-05T14:34:34;1003.9;;;7.6;100
61880;BME280;47817;52.798;27.544;2023-01-05T14:40:20;1003.9;;;7.6;100
61880;BME280;47817;52.798;27.544;2023-01-05T14:45:17;1004;;;7.6;100
61880;BME280;47817;52.798;27.544;2023-01-05T14:49:35;1004.1;;;7.7;100
61880;BME280;47817;52.798;27.544;2023-01-05T14:55:21;1004.3;;;7.4;100
61880;BME280;47817;52.798;27.544;2023-01-05T14:59:34;1004.3;;;7.4;100
61880;BME280;47817;52.798;27.544;2023-01-05T15:04:44;1004.4;;;7.3;100
61880;BME280;47817;52.798;27.544;2023-01-05T15:10:05;1004.4;;;7.3;100
61880;BME280;47817;52.798;27.544;2023-01-05T15:15:23;1004.3;;;7.2;100
61880;BME280;47817;52.798;27.544;2023-01-05T15:20:25;1004.4;;;7.2;100
61880;BME280;47817;52.798;27.544;2023-01-05T15:24:49;1004.4;;;7.2;100
61880;BME280;47817;52.798;27.544;2023-01-05T15:30:13;1004.5;;;7.2;100
61880;BME280;47817;52.798;27.544;2023-01-05T15:35:10;1004.5;;;7.2;100
61880;BME280;47817;52.798;27.544;2023-01-05T15:39:47;1004.5;;;7.1;100
61880;BME280;47817;52.798;27.544;2023-01-05T15:45:21;1004.5;;;7.1;100
61880;BME280;47817;52.798;27.544;2023-01-05T15:49:34;1004.5;;;7.1;100
61880;BME280;47817;52.798;27.544;2023-01-05T15:54:57;1004.5;;;7.2;100
61880;BME280;47817;52.798;27.544;2023-01-05T15:59:48;1004.5;;;7.2;100
61880;BME280;47817;52.798;27.544;2023-01-05T16:05:10;1004.6;;;7.1;100
61880;BME280;47817;52.798;27.544;2023-01-05T16:10:14;1004.7;;;7.1;100
61880;BME280;47817;52.798;27.544;2023-01-05T16:15:00;1004.7;;;7.1;100
61880;BME280;47817;52.798;27.544;2023-01-05T16:20:12;1004.8;;;7.1;100
61880;BME280;47817;52.798;27.544;2023-01-05T16:25:11;1004.8;;;7;100
61880;BME280;47817;52.798;27.544;2023-01-05T16:29:35;1004.9;;;7;100
61880;BME280;47817;52.798;27.544;2023-01-05T16:35:19;1005.1;;;6.8;100
61880;BME280;47817;52.798;27.544;2023-01-05T16:39:35;1005.1;;;6.8;100
61880;BME280;47817;52.798;27.544;2023-01-05T16:44:34;1005.1;;;6.7;100
61880;BME280;47817;52.798;27.544;2023-01-05T16:49:46;1005.1;;;6.4;100
61880;BME280;47817;52.798;27.544;2023-01-05T16:55:16;1005.2;;;6.3;100
61880;BME280;47817;52.798;27.544;2023-01-05T17:00:36;1005.4;;;5.8;100
61880;BME280;47817;52.798;27.544;2023-01-05T17:04:34;1005.4;;;5.8;100
61880;BME280;47817;52.798;27.544;2023-01-05T17:10:18;1005.6;;;5.4;100
61880;BME280;47817;52.798;27.544;2023-01-05T17:15:14;1005.6;;;5.4;100
61880;BME280;47817;52.798;27.544;2023-01-05T17:19:56;1005.7;;;5.1;100
61880;BME280;47817;52.798;27.544;2023-01-05T17:25:20;1005.9;;;5;100
61880;BME280;47817;52.798;27.544;2023-01-05T17:29:34;1005.9;;;5;100
61880;BME280;47817;52.798;27.544;2023-01-05T17:34:56;1006;;;4.9;100
61880;BME280;47817;52.798;27.544;2023-01-05T17:39:58;1006.1;;;4.8;100
61880;BME280;47817;52.798;27.544;2023-01-05T17:45:11;1006.2;;;4.7;100
61880;BME280;47817;52.798;27.544;2023-01-05T17:50:19;1006.3;;;4.3;100
61880;BME280;47817;52.798;27.544;2023-01-05T17:54:34;1006.3;;;4.3;100
61880;BME280;47817;52.798;27.544;2023-01-05T18:00:11;1006.5;;;4;100
61880;BME280;47817;52.798;27.544;2023-01-05T18:05:09;1006.6;;;3.9;100
61880;BME280;47817;52.798;27.544;2023-01-05T18:09:46;1006.7;;;3.9;100
61880;BME280;47817;52.798;27.544;2023-01-05T18:15:18;1007;;;3.5;100
61880;BME280;47817;52.798;27.544;2023-01-05T18:20:10;1007;;;3.5;100
61880;BME280;47817;52.798;27.544;2023-01-05T18:24:58;1007;;;3.5;100
61880;BME280;47817;52.798;27.544;2023-01-05T18:29:35;1007.2;;;3.3;100
61880;BME280;47817;52.798;27.544;2023-01-05T18:35:20;1007.4;;;3;100
61880;BME280;47817;52.798;27.544;2023-01-05T18:40:20;1007.5;;;3;100
61880;BME280;47817;52.798;27.544;2023-01-05T18:44:58;1007.5;;;3;100
61880;BME280;47817;52.798;27.544;2023-01-05T18:50:08;1007.6;;;3;100
61880;BME280;47817;52.798;27.544;2023-01-05T18:55:08;1007.8;;;3;100
61880;BME280;47817;52.798;27.544;2023-01-05T19:00:18;1008;;;3;100
61880;BME280;47817;52.798;27.544;2023-01-05T19:05:18;1008.1;;;3;100
61880;BME280;47817;52.798;27.544;2023-01-05T19:09:35;1008.1;;;3;100
61880;BME280;47817;52.798;27.544;2023-01-05T19:14:58;1008.2;;;2.9;100
61880;BME280;47817;52.798;27.544;2023-01-05T19:19:35;1008.3;;;2.8;100
61880;BME280;47817;52.798;27.544;2023-01-05T19:25:10;1008.4;;;2.8;100
61880;BME280;47817;52.798;27.544;2023-01-05T19:30:09;1008.6;;;2.8;100
61880;BME280;47817;52.798;27.544;2023-01-05T19:34:34;1008.6;;;2.8;100
61880;BME280;47817;52.798;27.544;2023-01-05T19:40:09;1008.6;;;2.8;100
61880;BME280;47817;52.798;27.544;2023-01-05T19:44:36;1008.7;;;2.8;100
61880;BME280;47817;52.798;27.544;2023-01-05T19:50:09;1008.7;;;2.8;100
61880;BME280;47817;52.798;27.544;2023-01-05T19:55:19;1008.9;;;2.7;100
61880;BME280;47817;52.798;27.544;2023-01-05T19:59:58;1008.9;;;2.7;100
61880;BME280;47817;52.798;27.544;2023-01-05T20:04:56;1008.9;;;2.5;100
61880;BME280;47817;52.798;27.544;2023-01-05T20:09:47;1009.1;;;2.5;100
61880;BME280;47817;52.798;27.544;2023-01-05T20:15:07;1009.3;;;2.5;100
61880;BME280;47817;52.798;27.544;2023-01-05T20:20:07;1009.3;;;2.5;100
61880;BME280;47817;52.798;27.544;2023-01-05T20:24:48;1009.4;;;2.4;100
61880;BME280;47817;52.798;27.544;2023-01-05T20:30:11;1009.6;;;2.3;100
61880;BME280;47817;52.798;27.544;2023-01-05T20:35:09;1009.6;;;2.2;100
61880;BME280;47817;52.798;27.544;2023-01-05T20:40:18;1010;;;2.1;100
61880;BME280;47817;52.798;27.544;2023-01-05T20:45:18;1010.1;;;2.1;100
61880;BME280;47817;52.798;27.544;2023-01-05T20:49:48;1010.1;;;2.1;100
61880;BME280;47817;52.798;27.544;2023-01-05T20:54:42;1010.2;;;2.1;100
61880;BME280;47817;52.798;27.544;2023-01-05T20:59:46;1010.3;;;2;100
61880;BME280;47817;52.798;27.544;2023-01-05T21:05:18;1010.6;;;1.9;100
61880;BME280;47817;52.798;27.544;2023-01-05T21:10:17;1010.8;;;1.9;100
61880;BME280;47817;52.798;27.544;2023-01-05T21:14:48;1010.8;;;1.9;100
61880;BME280;47817;52.798;27.544;2023-01-05T21:20:10;1010.9;;;1.9;100
61880;BME280;47817;52.798;27.544;2023-01-05T21:25:10;1011;;;1.8;100
61880;BME280;47817;52.798;27.544;2023-01-05T21:30:20;1011.2;;;1.6;100
61880;BME280;47817;52.798;27.544;2023-01-05T21:35:20;1011.4;;;1.5;100
61880;BME280;47817;52.798;27.544;2023-01-05T21:39:34;1011.4;;;1.5;100
61880;BME280;47817;52.798;27.544;2023-01-05T21:44:58;1011.6;;;1.5;100
61880;BME280;47817;52.798;27.544;2023-01-05T21:50:00;1011.6;;;1.6;100
61880;BME280;47817;52.798;27.544;2023-01-05T21:55:20;1011.9;;;1.5;100
61880;BME280;47817;52.798;27.544;2023-01-05T22:00:21;1012.1;;;1.6;100
61880;BME280;47817;52.798;27.544;2023-01-05T22:04:34;1012.1;;;1.6;100
61880;BME280;47817;52.798;27.544;2023-01-05T22:10:11;1012.2;;;1.5;100
61880;BME280;47817;52.798;27.544;2023-01-05T22:15:09;1012.3;;;1.5;100
61880;BME280;47817;52.798;27.544;2023-01-05T22:20:07;1012.3;;;1.5;100
61880;BME280;47817;52.798;27.544;2023-01-05T22:25:20;1012.6;;;1.4;100
61880;BME280;47817;52.798;27.544;2023-01-05T22:29:44;1012.6;;;1.4;100
61880;BME280;47817;52.798;27.544;2023-01-05T22:35:10;1012.8;;;1.4;100
61880;BME280;47817;52.798;27.544;2023-01-05T22:39:34;1012.9;;;1.4;100
61880;BME280;47817;52.798;27.544;2023-01-05T22:45:20;1013.3;;;1.3;100
61880;BME280;47817;52.798;27.544;2023-01-05T22:50:00;1013.3;;;1.3;100
61880;BME280;47817;52.798;27.544;2023-01-05T22:54:56;1013.4;;;1.3;100
61880;BME280;47817;52.798;27.544;2023-01-05T23:00:18;1013.7;;;1.3;100
61880;BME280;47817;52.798;27.544;2023-01-05T23:04:46;1013.7;;;1.3;100
61880;BME280;47817;52.798;27.544;2023-01-05T23:09:56;1013.7;;;1.3;100
61880;BME280;47817;52.798;27.544;2023-01-05T23:14:44;1013.8;;;1.3;100
61880;BME280;47817;52.798;27.544;2023-01-05T23:19:44;1014;;;1.2;100
61880;BME280;47817;52.798;27.544;2023-01-05T23:25:15;1014.3;;;1.1;100
61880;BME280;47817;52.798;27.544;2023-01-05T23:29:34;1014.3;;;1.1;100
61880;BME280;47817;52.798;27.544;2023-01-05T23:34:56;1014.4;;;1;100
61880;BME280;47817;52.798;27.544;2023-01-05T23:39:46;1014.5;;;0.9;100
61880;BME280;47817;52.798;27.544;2023-01-05T23:44:44;1014.7;;;0.8;100
61880;BME280;47817;52.798;27.544;2023-01-05T23:50:15;1015;;;0.8;100
61880;BME280;47817;52.798;27.544;2023-01-05T23:55:08;1015;;;0.8;100
